Social login voor leden:

1. METAR EBOS

METAR EBOS 190920Z 22011KT 4500 -DZ BR SCT004 BKN006 17/16 Q1017 TEMPO 2000 DZ BECMG 6000 NSW BKN008

2. TAF EBOS

TAF EBOS 190920Z 22011KT 4500 -DZ BR SCT004 BKN006 17/16 Q1017 TEMPO 2000 DZ BECMG 6000 NSW BKN008

3. NOTAMS EBOS

Klik hier voor een overzicht van de notams.

Deze pagina promoten

Noordzee Vliegclub - Nieuwpoortsesteenweg 947 8400 Oostende - Tel 059 30 04 79 - info@nzvc.be - 

 - Copyright 2020